Taos, NM

2:02 PM MDT on May 06, 2015 (GMT -0600)
Canon | | Change Station
CLOSE
Current Station
Personal Weather Station
Location: Taos, NM
Elevation: 7001 ft
Nearby Weather Stations

Elev 7001 ft 36.39 °N, 105.56 °W | Updated 4 minutes ago

Overcast
Overcast
62.1 °F
Feels Like 62.1 °F
N
8.3
Wind Variable Wind from East

Today
High -- | Low -- °F
--% Chance of Precip.
Yesterday
High -- | Low -- °F
Precip. -- in
6:04 AM 7:54 PM
Waning Gibbous, 92% visible
Pressure 29.93 in
Visibility 10.0 miles
Clouds Few 4900 ft
Scattered Clouds 5500 ft
Mostly Cloudy 8000 ft
Dew Point 44 °F
Humidity 52%
Rainfall 0.00 in
Snow Depth Not available.
UV 7 out of 12
Pollen 8.40 out of 12
Air Quality Not available.
Flu Activity Local Activity
METAR KSKX 061955Z AUTO 27014G25KT 10SM FEW049 SCT055 BKN080 12/02 A2993 RMK AO1 LTG DSNT NE

More Conditions Fewer Conditions

Pressure 29.93 in
Visibility 10.0 miles
Clouds Few 4900 ft
Scattered Clouds 5500 ft
Mostly Cloudy 8000 ft
Dew Point 44 °F
Humidity 52%
Rainfall 0.00 in
Snow Depth Not available.
UV 7 out of 12
Pollen 8.40 out of 12
Air Quality Not available.
Flu Activity Local Activity
METAR KSKX 061955Z AUTO 27014G25KT 10SM FEW049 SCT055 BKN080 12/02 A2993 RMK AO1 LTG DSNT NE

More Conditions Fewer Conditions

Nowcast | as of 1:34 PM MDT on May 6, 2015

Isolated to scattered showers and thunderstorms will move to the east across northern New Mexico this afternoon and evening. Through 300 PM MDT...thunderstorms and showers will increase in coverage and impact areas in or near Chaco Canyon...Navajo Dam... Chama...Counselor...Lindrith...Tierra Amarilla...El Rito...Los Alamos and White Rock...Santa Fe...and the Sangre de Cristo Mountains including Taos and Red River. Given the relatively fast movement...rainfall accumulations should remain generally below one or two tenths of on inch. The strongest storms could produce a quick burst of small hail and gusty winds...and lighting will be a threat with all thunderstorms.

×

10-Day Weather Forecast

Almanac

Astronomy

May. 06, 2015 Rise Set
Actual Time
Civil Twilight
Nautical Twilight
Astronomical Twilight
Moon
Length of Visible Light
Length of Day
Tomorrow will be .
, % of the Moon is Illuminated

Today's Extremes

State Highs State Lows

Community

WunderPhotos

Upload Photos

1,819,006 photos uploaded!

WunderBlogs® & News

Nearby

Air Quality

  Air Quality AQ Index Pollutant
Not available.

Snow Depth

Station Depth Elevation

Earthquake Activity

City Distance Mag. Time & Date
Minimum magnitude displayed is 2.5.

Coastal Water Temperatures

Place Temperature

Stations

Nearby Weather Stations

Station Location Temp. Windchill Dew Point Humidity Wind Precip. Elev Updated Type